Time;durP1;ratioP1;P1;durP2;ratioP2;P2;SDS_P1;SDS_P2;PMS_P1;PMS_P2;Temp;Humidity;BMP_temperature;BMP_pressure;BME280_temperature;BME280_humidity;BME280_pressure;Samples;Min_cycle;Max_cycle;Signal;HPM_P1;HPM_P2
2022/09/01 00:00:47;;;;;;;5.32;1.20;;;15.70;99.90;;;;;;5017839;28;20415;-74
2022/09/01 00:03:15;;;;;;;1.45;0.90;;;15.70;99.90;;;;;;5014692;28;20038;-74
2022/09/01 00:05:41;;;;;;;3.83;1.20;;;15.70;99.90;;;;;;5018135;28;20096;-74
2022/09/01 00:08:07;;;;;;;3.45;0.93;;;15.70;99.90;;;;;;5018176;28;20068;-74
2022/09/01 00:10:32;;;;;;;2.42;1.02;;;15.70;99.90;;;;;;5020163;28;20088;-74
2022/09/01 00:12:58;;;;;;;3.50;1.30;;;15.60;99.90;;;;;;5019076;28;20041;-74
2022/09/01 00:15:24;;;;;;;4.40;0.85;;;15.60;99.90;;;;;;5015357;28;20049;-74
2022/09/01 00:17:50;;;;;;;1.20;0.73;;;15.60;99.90;;;;;;5019594;28;20128;-74
2022/09/01 00:20:16;;;;;;;5.45;0.80;;;15.60;99.90;;;;;;5019167;28;20120;-74
2022/09/01 00:22:44;;;;;;;2.90;0.73;;;15.60;99.90;;;;;;5021727;28;20053;-74
2022/09/01 00:25:10;;;;;;;1.48;1.00;;;15.60;99.90;;;;;;5013820;28;20060;-74
2022/09/01 00:27:36;;;;;;;2.78;1.30;;;15.60;99.90;;;;;;5021362;28;20053;-74
2022/09/01 00:30:02;;;;;;;3.70;0.90;;;15.60;99.90;;;;;;5021284;28;20515;-74
2022/09/01 00:32:28;;;;;;;1.65;0.70;;;15.60;99.90;;;;;;5022121;28;20068;-74
2022/09/01 00:34:53;;;;;;;2.45;0.90;;;15.60;99.90;;;;;;5020618;28;20491;-74
2022/09/01 00:37:19;;;;;;;1.85;1.10;;;15.50;99.90;;;;;;5027000;28;20041;-74
2022/09/01 00:39:45;;;;;;;2.00;0.80;;;15.60;99.90;;;;;;5021556;28;20146;-74
2022/09/01 00:42:10;;;;;;;2.20;0.77;;;15.50;99.90;;;;;;5006046;28;20649;-74
2022/09/01 00:44:37;;;;;;;1.88;0.95;;;15.50;99.90;;;;;;5018943;28;20138;-74
2022/09/01 00:47:05;;;;;;;2.00;1.20;;;15.40;99.90;;;;;;5015092;28;20049;-74
2022/09/01 00:49:37;;;;;;;1.75;0.85;;;15.50;99.90;;;;;;5028519;28;20114;-74
2022/09/01 00:52:10;;;;;;;1.55;0.85;;;15.40;99.90;;;;;;5023104;28;20121;-73
2022/09/01 00:54:40;;;;;;;2.13;0.80;;;15.40;99.90;;;;;;5028940;28;20056;-73
2022/09/01 00:57:08;;;;;;;4.43;0.98;;;15.40;99.90;;;;;;5027263;28;20100;-74
2022/09/01 00:59:49;;;;;;;2.60;0.88;;;15.40;99.90;;;;;;5022517;28;20037;-73
2022/09/01 01:02:14;;;;;;;2.03;0.73;;;15.30;99.90;;;;;;5027817;28;20128;-73
2022/09/01 01:04:42;;;;;;;1.25;0.70;;;15.30;99.90;;;;;;5016332;28;20475;-74
2022/09/01 01:07:10;;;;;;;1.45;0.82;;;15.30;99.90;;;;;;5029504;28;20042;-79
2022/09/01 01:09:41;;;;;;;1.38;0.63;;;15.30;99.90;;;;;;5025774;28;20221;-74
2022/09/01 01:12:17;;;;;;;6.07;0.80;;;15.30;99.90;;;;;;5022483;28;20124;-74
2022/09/01 01:14:44;;;;;;;0.77;0.60;;;15.20;99.90;;;;;;5025222;28;20092;-74
2022/09/01 01:17:10;;;;;;;1.40;0.77;;;15.20;99.90;;;;;;5031093;28;20573;-79
2022/09/01 01:23:06;;;;;;;1.55;0.80;;;15.20;99.90;;;;;;5016739;28;20487;-74
2022/09/01 01:25:43;;;;;;;1.70;0.90;;;15.20;99.90;;;;;;5017012;28;20710;-75
2022/09/01 01:28:18;;;;;;;1.05;0.60;;;15.10;99.90;;;;;;5022698;28;20823;-74
2022/09/01 01:30:52;;;;;;;2.05;0.77;;;15.10;99.90;;;;;;5018188;28;20430;-74
2022/09/01 01:33:24;;;;;;;2.05;0.88;;;15.10;99.90;;;;;;5021575;28;20430;-74
2022/09/01 01:35:51;;;;;;;3.40;0.80;;;15.10;99.90;;;;;;5025371;28;20047;-74
2022/09/01 01:38:19;;;;;;;1.42;0.70;;;15.10;99.90;;;;;;5006767;28;20053;-74
2022/09/01 01:40:45;;;;;;;1.83;0.70;;;15.10;99.90;;;;;;5024324;28;20342;-74
2022/09/01 01:43:18;;;;;;;2.33;0.70;;;15.10;99.90;;;;;;5022218;28;20052;-74
2022/09/01 01:45:47;;;;;;;1.30;0.77;;;15.10;99.90;;;;;;5020804;28;20105;-74
2022/09/01 01:48:14;;;;;;;1.05;0.60;;;15.10;99.90;;;;;;5019945;28;20052;-74
2022/09/01 01:50:41;;;;;;;1.10;0.57;;;15.00;99.90;;;;;;5023413;28;20493;-74
2022/09/01 01:53:08;;;;;;;2.08;0.60;;;15.00;99.90;;;;;;5020457;28;20068;-74
2022/09/01 01:55:34;;;;;;;2.67;0.70;;;15.00;99.90;;;;;;5019716;28;20041;-74
2022/09/01 01:58:00;;;;;;;1.65;0.70;;;15.00;99.90;;;;;;5024042;28;20121;-74
2022/09/01 02:00:33;;;;;;;2.17;0.60;;;14.90;99.90;;;;;;5018434;28;20057;-74
2022/09/01 02:02:59;;;;;;;0.80;0.50;;;14.90;99.90;;;;;;5027437;28;20599;-74
2022/09/01 02:05:27;;;;;;;;;;;14.90;99.90;;;;;;5018305;28;20037;-74
2022/09/01 02:08:00;;;;;;;1.42;0.68;;;14.80;99.90;;;;;;5020628;28;20147;-74
2022/09/01 02:10:30;;;;;;;1.27;0.80;;;14.80;99.90;;;;;;5014093;28;20037;-74
2022/09/01 02:13:02;;;;;;;1.40;0.45;;;14.80;99.90;;;;;;5019142;28;20037;-74
2022/09/01 02:15:28;;;;;;;1.27;0.65;;;14.90;99.90;;;;;;5016740;28;20049;-74
2022/09/01 02:17:58;;;;;;;1.75;0.70;;;14.80;99.90;;;;;;5019889;28;20045;-74
2022/09/01 02:20:28;;;;;;;1.55;0.75;;;14.80;99.90;;;;;;5021321;28;20068;-74
2022/09/01 02:22:54;;;;;;;1.42;0.70;;;14.80;99.90;;;;;;5026177;28;20439;-74
2022/09/01 02:25:22;;;;;;;0.80;0.50;;;14.80;99.90;;;;;;5025012;28;20054;-74
2022/09/01 02:27:52;;;;;;;2.30;0.70;;;14.70;99.90;;;;;;5023996;28;20088;-74
2022/09/01 02:30:18;;;;;;;1.75;0.80;;;14.70;99.90;;;;;;5022719;28;20511;-74
2022/09/01 02:32:44;;;;;;;;;;;14.70;99.90;;;;;;5026945;28;20060;-74
2022/09/01 02:35:10;;;;;;;1.63;0.60;;;14.60;99.90;;;;;;5021902;28;19925;-74
2022/09/01 02:37:38;;;;;;;;;;;14.60;99.90;;;;;;5030047;28;20046;-74
2022/09/01 02:40:09;;;;;;;1.88;0.68;;;14.60;99.90;;;;;;5022584;28;19917;-74
2022/09/01 02:42:39;;;;;;;1.58;0.60;;;14.60;99.90;;;;;;5026149;28;20045;-74
2022/09/01 02:45:14;;;;;;;2.10;0.70;;;14.60;99.90;;;;;;5019840;28;20041;-74
2022/09/01 02:47:44;;;;;;;1.20;0.70;;;14.50;99.90;;;;;;5023098;28;20342;-74
2022/09/01 02:50:15;;;;;;;1.77;0.80;;;14.50;99.90;;;;;;5024506;28;20045;-74
2022/09/01 02:52:42;;;;;;;1.73;0.93;;;14.50;99.90;;;;;;5024461;28;20100;-74
2022/09/01 02:55:08;;;;;;;1.35;0.63;;;14.50;99.90;;;;;;5018505;28;20441;-74
2022/09/01 02:57:34;;;;;;;2.03;0.80;;;14.50;99.90;;;;;;5019250;28;20045;-74
2022/09/01 03:00:00;;;;;;;1.55;0.90;;;14.50;99.90;;;;;;5020362;28;20045;-74
2022/09/01 03:02:27;;;;;;;;;;;14.50;99.90;;;;;;5027603;28;20095;-74
2022/09/01 03:04:54;;;;;;;2.30;0.83;;;14.40;99.90;;;;;;5025645;28;19921;-74
2022/09/01 03:07:25;;;;;;;2.25;0.90;;;14.50;99.90;;;;;;5024854;28;20382;-74
2022/09/01 03:09:51;;;;;;;1.00;0.60;;;14.40;99.90;;;;;;5021382;28;20038;-74
2022/09/01 03:12:18;;;;;;;3.13;0.80;;;14.40;99.90;;;;;;5025995;28;20119;-74
2022/09/01 03:14:44;;;;;;;1.85;0.70;;;14.40;99.90;;;;;;5020907;28;20135;-74
2022/09/01 03:17:10;;;;;;;5.07;0.75;;;14.40;99.90;;;;;;5019079;28;21044;-74
2022/09/01 03:19:44;;;;;;;;;;;14.40;99.90;;;;;;5018396;28;20045;-74
2022/09/01 03:22:09;;;;;;;2.88;1.00;;;14.30;99.90;;;;;;5023245;28;20424;-74
2022/09/01 03:24:35;;;;;;;1.83;0.93;;;14.40;99.90;;;;;;5022770;28;20050;-74
2022/09/01 03:27:01;;;;;;;2.27;1.03;;;14.30;99.90;;;;;;5028017;28;20046;-74
2022/09/01 03:29:26;;;;;;;1.65;0.93;;;14.30;99.90;;;;;;5019963;28;20426;-74
2022/09/01 03:31:55;;;;;;;1.55;0.80;;;14.40;99.90;;;;;;5020652;28;20041;-74
2022/09/01 03:34:23;;;;;;;1.00;0.80;;;14.40;99.90;;;;;;5021633;28;20057;-74
2022/09/01 03:36:49;;;;;;;1.38;0.80;;;14.30;99.90;;;;;;5022847;28;20092;-74
2022/09/01 03:39:16;;;;;;;;;;;14.40;99.90;;;;;;5021336;28;20076;-74
2022/09/01 03:41:43;;;;;;;2.03;0.70;;;14.40;99.90;;;;;;5020344;28;19917;-74
2022/09/01 03:44:12;;;;;;;1.77;0.98;;;14.30;99.90;;;;;;5026018;28;20060;-74
2022/09/01 03:46:39;;;;;;;1.30;0.75;;;14.30;99.90;;;;;;5005793;28;20117;-74
2022/09/01 03:49:11;;;;;;;1.10;0.60;;;14.20;99.90;;;;;;5019588;28;20052;-74
2022/09/01 03:51:37;;;;;;;1.73;1.10;;;14.20;99.90;;;;;;5023676;28;20045;-74
2022/09/01 03:54:03;;;;;;;2.85;1.38;;;14.20;99.90;;;;;;5021781;28;20090;-74
2022/09/01 03:56:29;;;;;;;1.90;0.90;;;14.20;99.90;;;;;;5025443;28;20127;-74
2022/09/01 03:58:57;;;;;;;3.13;0.95;;;14.20;99.90;;;;;;5020781;28;20132;-74
2022/09/01 04:01:24;;;;;;;1.15;0.80;;;14.10;99.90;;;;;;5023076;28;20052;-74
2022/09/01 04:03:50;;;;;;;1.45;0.85;;;14.10;99.90;;;;;;5022167;28;20076;-74
2022/09/01 04:06:22;;;;;;;1.80;0.95;;;14.10;99.90;;;;;;5023653;28;20152;-74
2022/09/01 04:08:52;;;;;;;1.40;0.88;;;14.10;99.90;;;;;;5020027;28;20049;-74
2022/09/01 04:11:22;;;;;;;3.30;0.80;;;14.10;99.90;;;;;;5023892;28;20049;-74
2022/09/01 04:13:48;;;;;;;1.20;0.70;;;14.10;99.90;;;;;;5020522;28;20512;-74
2022/09/01 04:19:14;;;;;;;1.63;1.05;;;14.00;99.90;;;;;;5018741;28;20290;-75
2022/09/01 04:21:41;;;;;;;1.63;0.80;;;14.00;99.90;;;;;;5019440;28;20081;-74
2022/09/01 04:24:10;;;;;;;1.70;1.10;;;14.00;99.90;;;;;;5021944;28;20045;-74
2022/09/01 04:26:37;;;;;;;2.03;1.05;;;14.00;99.90;;;;;;5006446;28;20339;-74
2022/09/01 04:29:02;;;;;;;1.67;0.90;;;14.00;99.90;;;;;;5008635;28;20037;-74
2022/09/01 04:31:31;;;;;;;1.42;0.90;;;14.00;99.90;;;;;;5016678;28;20104;-74
2022/09/01 04:33:57;;;;;;;2.22;0.90;;;14.00;99.90;;;;;;5015829;28;20076;-74
2022/09/01 04:36:31;;;;;;;2.00;0.88;;;14.00;99.90;;;;;;5016095;28;20041;-74
2022/09/01 04:38:59;;;;;;;2.42;1.02;;;14.00;99.90;;;;;;5019132;28;20406;-74
2022/09/01 04:41:30;;;;;;;1.73;0.80;;;14.00;99.90;;;;;;5017585;28;20266;-77
2022/09/01 04:43:57;;;;;;;2.70;1.00;;;14.00;99.90;;;;;;5014334;28;20136;-80
2022/09/01 04:46:28;;;;;;;1.48;0.77;;;14.00;99.90;;;;;;5008010;28;20049;-77
2022/09/01 04:48:54;;;;;;;2.00;1.17;;;14.00;99.90;;;;;;5021648;28;20042;-76
2022/09/01 04:51:21;;;;;;;;;;;14.00;99.90;;;;;;5023808;28;20052;-81
2022/09/01 04:53:49;;;;;;;1.65;0.82;;;14.00;99.90;;;;;;5022491;28;19917;-76
2022/09/01 04:56:21;;;;;;;1.25;0.80;;;14.00;99.90;;;;;;5018291;28;20125;-75
2022/09/01 04:58:48;;;;;;;1.52;0.93;;;13.90;99.90;;;;;;5021978;28;20059;-80
2022/09/01 05:01:25;;;;;;;1.60;1.00;;;13.90;99.90;;;;;;5015554;28;20533;-78
2022/09/01 05:04:00;;;;;;;2.35;1.20;;;13.90;99.90;;;;;;5020931;28;20445;-80
2022/09/01 05:06:28;;;;;;;2.03;1.08;;;13.90;99.90;;;;;;5019578;28;20077;-78
2022/09/01 05:08:56;;;;;;;3.83;1.08;;;14.00;99.90;;;;;;5021856;28;20037;-80
2022/09/01 05:11:22;;;;;;;2.05;1.15;;;13.90;99.90;;;;;;5022896;28;20041;-74
2022/09/01 05:13:48;;;;;;;;;;;13.90;99.90;;;;;;5019754;28;20079;-76
2022/09/01 05:16:18;;;;;;;1.80;1.00;;;13.90;99.90;;;;;;5014203;28;20307;-73
2022/09/01 05:18:46;;;;;;;3.13;1.00;;;13.90;99.90;;;;;;5018225;28;20495;-74
2022/09/01 05:21:15;;;;;;;3.38;1.00;;;13.90;99.90;;;;;;5004087;28;20507;-73
2022/09/01 05:23:43;;;;;;;3.67;1.05;;;13.90;99.90;;;;;;5024316;22;20495;-71
2022/09/01 05:26:15;;;;;;;3.80;1.33;;;13.80;99.90;;;;;;5004015;28;20457;-71
2022/09/01 05:28:45;;;;;;;2.90;0.85;;;13.90;99.90;;;;;;5010671;28;20069;-71
2022/09/01 05:31:11;;;;;;;3.15;1.00;;;13.90;99.90;;;;;;5000962;28;20169;-71
2022/09/01 05:33:44;;;;;;;;;;;13.90;99.90;;;;;;5004442;28;20100;-71
2022/09/01 05:36:11;;;;;;;1.98;1.00;;;13.90;99.90;;;;;;5003105;28;19960;-71
2022/09/01 05:38:41;;;;;;;2.40;1.00;;;13.80;99.90;;;;;;5007654;28;20061;-70
2022/09/01 05:41:08;;;;;;;1.92;1.10;;;13.90;99.90;;;;;;5005435;28;20450;-71
2022/09/01 05:43:35;;;;;;;4.10;1.20;;;13.90;99.90;;;;;;5006172;28;20056;-71
2022/09/01 05:46:07;;;;;;;5.35;1.38;;;13.90;99.90;;;;;;5003606;28;20495;-72
2022/09/01 05:48:38;;;;;;;2.60;1.48;;;13.90;99.90;;;;;;4996902;28;20104;-71
2022/09/01 05:51:07;;;;;;;3.03;1.20;;;13.90;99.90;;;;;;5002121;28;20480;-74
2022/09/01 05:53:33;;;;;;;3.40;1.38;;;13.90;99.90;;;;;;5005220;28;20405;-73
2022/09/01 05:56:05;;;;;;;2.53;1.30;;;14.00;99.90;;;;;;5018647;28;20102;-73
2022/09/01 05:58:33;;;;;;;1.55;1.10;;;14.00;99.90;;;;;;5006661;28;20042;-73
2022/09/01 06:01:00;;;;;;;2.63;1.08;;;14.10;99.90;;;;;;5007575;28;20146;-72
2022/09/01 06:03:26;;;;;;;2.20;1.50;;;14.10;99.90;;;;;;5004840;28;20057;-71
2022/09/01 06:05:54;;;;;;;2.30;1.05;;;14.20;99.90;;;;;;5007273;28;20507;-73
2022/09/01 06:08:21;;;;;;;2.15;1.35;;;14.20;99.90;;;;;;4998550;28;20118;-72
2022/09/01 06:10:49;;;;;;;2.92;1.42;;;14.20;99.90;;;;;;5004339;28;20418;-71
2022/09/01 06:13:16;;;;;;;1.80;1.20;;;14.20;99.90;;;;;;5002701;28;20212;-71
2022/09/01 06:15:43;;;;;;;2.42;1.33;;;14.30;99.90;;;;;;4982804;28;20038;-71
2022/09/01 06:18:11;;;;;;;2.20;1.20;;;14.30;99.90;;;;;;5005299;28;20073;-71
2022/09/01 06:20:42;;;;;;;1.70;0.93;;;14.40;99.90;;;;;;4989790;28;20046;-71
2022/09/01 06:23:13;;;;;;;2.30;1.20;;;14.40;99.90;;;;;;5005891;28;20057;-71
2022/09/01 06:25:44;;;;;;;2.00;1.25;;;14.50;99.90;;;;;;4999927;28;20041;-71
2022/09/01 06:28:14;;;;;;;2.30;1.20;;;14.50;99.90;;;;;;5005734;28;20116;-71
2022/09/01 06:30:41;;;;;;;3.03;1.38;;;14.50;99.90;;;;;;5004599;28;20038;-71
2022/09/01 06:33:08;;;;;;;3.08;1.65;;;14.60;99.90;;;;;;4981198;28;20530;-71
2022/09/01 06:35:35;;;;;;;1.80;1.05;;;14.70;99.90;;;;;;5004369;28;20168;-71
2022/09/01 06:38:01;;;;;;;4.97;1.52;;;14.70;99.90;;;;;;5002728;28;20050;-71
2022/09/01 06:40:27;;;;;;;3.35;1.17;;;14.80;99.90;;;;;;5003580;28;20041;-71
2022/09/01 06:42:53;;;;;;;2.42;1.05;;;14.80;99.90;;;;;;5005256;28;20068;-71
2022/09/01 06:45:22;;;;;;;3.88;2.15;;;14.90;99.90;;;;;;5007252;28;20400;-71
2022/09/01 06:47:49;;;;;;;2.55;1.40;;;14.90;99.90;;;;;;4988407;28;20539;-72
2022/09/01 06:50:18;;;;;;;5.47;1.20;;;14.90;99.90;;;;;;5007371;28;20099;-71
2022/09/01 06:52:45;;;;;;;2.35;1.20;;;15.00;99.90;;;;;;5001002;28;20050;-71
2022/09/01 06:55:11;;;;;;;;;;;15.10;99.90;;;;;;5003362;28;20050;-71
2022/09/01 06:57:38;;;;;;;2.22;1.30;;;15.10;99.90;;;;;;5005020;28;19917;-71
2022/09/01 07:00:16;;;;;;;;;;;15.20;99.90;;;;;;5007795;28;20136;-71
2022/09/01 07:02:44;;;;;;;3.83;1.30;;;15.30;99.90;;;;;;5007188;28;20210;-72
2022/09/01 07:05:10;;;;;;;1.58;0.90;;;15.30;99.90;;;;;;5004414;28;20113;-71
2022/09/01 07:07:36;;;;;;;;;;;15.50;99.90;;;;;;5006687;28;20041;-71
2022/09/01 07:10:03;;;;;;;3.08;1.35;;;15.40;99.90;;;;;;5004983;28;20375;-72
2022/09/01 07:12:30;;;;;;;1.55;0.75;;;15.50;99.90;;;;;;5005229;28;20136;-71
2022/09/01 07:14:58;;;;;;;2.42;1.25;;;15.50;99.90;;;;;;5003031;28;20041;-71
2022/09/01 07:17:25;;;;;;;2.88;1.27;;;15.60;99.90;;;;;;5007017;28;20152;-71
2022/09/01 07:19:50;;;;;;;3.08;1.25;;;15.60;99.90;;;;;;5004161;28;20342;-71
2022/09/01 07:22:16;;;;;;;3.28;1.10;;;15.70;99.90;;;;;;5005141;28;20175;-71
2022/09/01 07:24:44;;;;;;;5.50;1.30;;;15.80;99.90;;;;;;5004504;28;20514;-72
2022/09/01 07:27:11;;;;;;;3.33;1.05;;;15.70;99.90;;;;;;4988848;28;20038;-72
2022/09/01 07:29:38;;;;;;;;;;;15.80;99.90;;;;;;5004237;28;20407;-71
2022/09/01 07:32:04;;;;;;;3.78;1.10;;;15.80;99.90;;;;;;5006317;28;19924;-71
2022/09/01 07:34:30;;;;;;;;;;;15.90;99.90;;;;;;5009753;28;20135;-71
2022/09/01 07:36:55;;;;;;;1.88;0.90;;;16.00;99.90;;;;;;5005373;28;19939;-71
2022/09/01 07:39:21;;;;;;;1.38;0.80;;;16.10;99.90;;;;;;4998124;28;20472;-71
2022/09/01 07:41:47;;;;;;;2.42;1.13;;;16.20;99.90;;;;;;5005220;28;20124;-71
2022/09/01 07:44:13;;;;;;;3.53;1.07;;;16.30;99.90;;;;;;5005132;28;20289;-72
2022/09/01 07:46:40;;;;;;;4.57;1.10;;;16.30;99.90;;;;;;5003916;28;20390;-71
2022/09/01 07:49:06;;;;;;;2.35;1.17;;;16.40;99.90;;;;;;5006288;28;20046;-71
2022/09/01 07:51:33;;;;;;;1.35;0.75;;;16.40;99.90;;;;;;4985736;28;20092;-71
2022/09/01 07:54:01;;;;;;;1.60;0.82;;;16.40;99.90;;;;;;4989617;28;20407;-71
2022/09/01 07:56:29;;;;;;;1.90;1.17;;;16.50;99.90;;;;;;4998265;28;20038;-71
2022/09/01 07:58:56;;;;;;;2.17;1.00;;;16.60;99.90;;;;;;5001966;28;20369;-71
2022/09/01 08:01:24;;;;;;;1.40;0.85;;;16.70;99.90;;;;;;5005119;28;20480;-72
2022/09/01 08:03:57;;;;;;;1.83;0.82;;;16.80;99.90;;;;;;5003771;28;20113;-72
2022/09/01 08:06:25;;;;;;;1.35;0.80;;;17.00;99.90;;;;;;5004358;28;20098;-71
2022/09/01 08:08:54;;;;;;;3.67;1.00;;;17.10;99.90;;;;;;5005554;28;20049;-71
2022/09/01 08:11:27;;;;;;;2.30;1.35;;;17.20;99.90;;;;;;5001253;28;20448;-72
2022/09/01 08:13:54;;;;;;;2.35;1.08;;;17.30;99.90;;;;;;5005543;28;20416;-71
2022/09/01 08:16:21;;;;;;;2.58;0.80;;;17.40;99.90;;;;;;5004186;28;20042;-71
2022/09/01 08:18:47;;;;;;;1.25;0.60;;;17.50;99.90;;;;;;5002798;28;20188;-71
2022/09/01 08:21:13;;;;;;;;;;;17.60;99.90;;;;;;5005506;28;20081;-71
2022/09/01 08:23:39;;;;;;;3.22;0.90;;;17.70;99.90;;;;;;5002141;28;20338;-71
2022/09/01 08:26:07;;;;;;;2.22;0.80;;;17.70;99.90;;;;;;5004391;28;20049;-72
2022/09/01 08:28:33;;;;;;;1.50;0.82;;;17.80;99.90;;;;;;5001715;28;20046;-71
2022/09/01 08:30:59;;;;;;;1.70;0.90;;;17.80;99.90;;;;;;5005770;28;20088;-71
2022/09/01 08:33:25;;;;;;;1.55;0.80;;;17.90;99.90;;;;;;4999931;28;20455;-71
2022/09/01 08:35:51;;;;;;;2.50;1.63;;;18.00;99.90;;;;;;4988539;28;20395;-71
2022/09/01 08:38:17;;;;;;;2.47;0.65;;;18.10;99.90;;;;;;4988191;28;20111;-71
2022/09/01 08:40:53;;;;;;;1.40;0.85;;;18.20;99.90;;;;;;5005471;28;20045;-71
2022/09/01 08:43:35;;;;;;;2.83;1.00;;;18.30;99.90;;;;;;5004158;28;20064;-71
2022/09/01 08:46:12;;;;;;;2.63;1.00;;;18.40;99.90;;;;;;5000443;28;20129;-71
2022/09/01 08:48:41;;;;;;;2.25;0.90;;;18.50;99.90;;;;;;5001634;28;20042;-71
2022/09/01 08:51:38;;;;;;;2.45;0.80;;;18.60;99.90;;;;;;5004373;28;20183;-71
2022/09/01 08:54:36;;;;;;;1.60;0.90;;;18.70;99.90;;;;;;4998715;28;20088;-71
2022/09/01 08:57:09;;;;;;;1.55;0.95;;;18.80;99.90;;;;;;5006823;28;20056;-71
2022/09/01 08:59:35;;;;;;;2.08;0.75;;;18.90;99.90;;;;;;4990680;28;20041;-71
2022/09/01 09:02:26;;;;;;;2.03;0.68;;;19.00;99.90;;;;;;5008154;28;20077;-72
2022/09/01 09:04:57;;;;;;;1.90;0.47;;;19.10;99.90;;;;;;5007385;28;20054;-71
2022/09/01 09:07:41;;;;;;;1.00;0.60;;;19.30;99.90;;;;;;5009492;28;20049;-72
2022/09/01 09:10:14;;;;;;;1.45;0.47;;;19.30;99.90;;;;;;5008580;28;20104;-71
2022/09/01 09:12:54;;;;;;;1.70;0.60;;;19.30;99.90;;;;;;5006491;28;20302;-72
2022/09/01 09:15:38;;;;;;;1.98;0.80;;;19.40;99.90;;;;;;5007264;28;20202;-71
2022/09/01 09:18:28;;;;;;;3.97;0.60;;;19.50;99.90;;;;;;5007841;28;20440;-71
2022/09/01 09:20:57;;;;;;;1.30;0.45;;;19.60;99.90;;;;;;5000518;28;20046;-71
2022/09/01 09:23:32;;;;;;;1.23;0.45;;;19.70;99.90;;;;;;5007789;28;20057;-71
2022/09/01 09:25:57;;;;;;;1.45;0.68;;;19.80;99.90;;;;;;4999195;28;20042;-71
2022/09/01 09:28:23;;;;;;;0.73;0.40;;;19.90;99.90;;;;;;5002041;28;20034;-72
2022/09/01 09:30:49;;;;;;;1.25;0.57;;;20.00;99.90;;;;;;4999744;28;20054;-71
2022/09/01 09:33:37;;;;;;;0.95;0.50;;;20.00;99.90;;;;;;5010183;28;20133;-71
2022/09/01 09:36:18;;;;;;;1.50;0.70;;;20.20;99.90;;;;;;5002467;28;20570;-71
2022/09/01 09:38:44;;;;;;;1.25;0.40;;;20.30;99.90;;;;;;5008781;28;20042;-71
2022/09/01 09:41:19;;;;;;;1.30;0.50;;;20.30;99.90;;;;;;5008180;28;20438;-71
2022/09/01 09:43:47;;;;;;;1.23;0.50;;;20.60;99.90;;;;;;5005528;28;20135;-71
2022/09/01 09:46:30;;;;;;;1.98;0.60;;;20.60;99.90;;;;;;5006372;28;20258;-71
2022/09/01 09:49:23;;;;;;;1.65;0.50;;;20.70;99.90;;;;;;5007834;28;20034;-71
2022/09/01 09:52:08;;;;;;;1.73;0.50;;;20.80;99.90;;;;;;5002611;28;20046;-71
2022/09/01 09:54:57;;;;;;;0.80;0.50;;;21.00;99.90;;;;;;5007900;28;20460;-71
2022/09/01 09:57:23;;;;;;;1.40;0.32;;;21.10;99.90;;;;;;5008913;28;20057;-71
2022/09/01 10:00:07;;;;;;;1.23;0.60;;;21.20;99.90;;;;;;4990449;28;20064;-71
2022/09/01 10:02:39;;;;;;;1.13;0.40;;;21.30;99.90;;;;;;5005947;28;20119;-71
2022/09/01 10:05:37;;;;;;;0.75;0.45;;;21.40;99.90;;;;;;5007091;28;20128;-71
2022/09/01 10:08:09;;;;;;;1.50;0.50;;;21.50;99.90;;;;;;5007195;28;20046;-72
2022/09/01 10:10:49;;;;;;;1.60;0.47;;;21.60;99.90;;;;;;5008865;28;20041;-71
2022/09/01 10:13:21;;;;;;;1.33;0.50;;;21.70;99.90;;;;;;5005828;28;20145;-71
2022/09/01 10:15:50;;;;;;;1.15;0.43;;;21.80;99.90;;;;;;5007718;28;20519;-71
2022/09/01 10:18:23;;;;;;;2.58;0.30;;;21.90;99.90;;;;;;4989623;28;20163;-71
2022/09/01 10:21:17;;;;;;;0.82;0.30;;;22.00;99.90;;;;;;5005140;28;20480;-71
2022/09/01 10:23:43;;;;;;;1.23;0.50;;;22.10;99.70;;;;;;5005454;28;20049;-71
2022/09/01 10:26:21;;;;;;;;;;;22.20;99.90;;;;;;5006501;28;20464;-71
2022/09/01 10:28:59;;;;;;;1.27;0.38;;;22.30;98.20;;;;;;5006459;28;19929;-71
2022/09/01 10:31:26;;;;;;;0.68;0.35;;;22.40;99.70;;;;;;5007299;28;20392;-72
2022/09/01 10:33:52;;;;;;;0.70;0.40;;;22.50;99.00;;;;;;5007190;28;20480;-72
2022/09/01 10:36:19;;;;;;;;;;;22.50;97.70;;;;;;5007494;28;20092;-71
2022/09/01 10:38:47;;;;;;;1.20;0.30;;;22.60;96.30;;;;;;5004993;28;19924;-71
2022/09/01 10:41:49;;;;;;;0.90;0.45;;;22.60;97.50;;;;;;5006960;28;20046;-72
2022/09/01 10:44:32;;;;;;;0.32;0.13;;;22.70;95.60;;;;;;4995419;28;20405;-71
2022/09/01 10:47:02;;;;;;;0.35;0.30;;;22.80;96.00;;;;;;5002219;28;20041;-72
2022/09/01 10:49:28;;;;;;;0.93;0.40;;;22.90;94.00;;;;;;5003549;28;20428;-72
2022/09/01 10:51:54;;;;;;;;;;;23.10;93.30;;;;;;5004451;28;20042;-71
2022/09/01 10:54:38;;;;;;;0.40;0.10;;;23.30;90.80;;;;;;5004564;28;19924;-72
2022/09/01 10:57:35;;;;;;;1.05;0.28;;;23.40;90.40;;;;;;5000685;28;20042;-71
2022/09/01 11:00:19;;;;;;;1.00;0.43;;;23.60;87.20;;;;;;5006749;28;20128;-71
2022/09/01 11:03:12;;;;;;;1.42;0.47;;;23.70;88.00;;;;;;5004303;28;20057;-72
2022/09/01 11:05:53;;;;;;;0.65;0.30;;;23.80;83.20;;;;;;5006504;28;20183;-71
2022/09/01 11:08:28;;;;;;;0.70;0.30;;;23.70;79.60;;;;;;5005389;28;20061;-72
2022/09/01 11:10:58;;;;;;;1.00;0.20;;;23.60;81.50;;;;;;4987605;28;20044;-71
2022/09/01 11:13:42;;;;;;;0.82;0.30;;;23.50;82.70;;;;;;5005458;28;20037;-71
2022/09/01 11:16:29;;;;;;;1.58;0.40;;;23.30;81.10;;;;;;5003426;28;20085;-71
2022/09/01 11:19:14;;;;;;;;;;;23.30;80.90;;;;;;4994215;28;20061;-70
2022/09/01 11:21:40;;;;;;;1.38;0.30;;;23.40;78.90;;;;;;5002449;28;19917;-71
2022/09/01 11:24:37;;;;;;;0.82;0.30;;;23.40;82.70;;;;;;5031264;22;20267;-70
2022/09/01 11:27:11;;;;;;;1.08;0.50;;;23.40;81.90;;;;;;5020660;28;20339;-70
2022/09/01 11:29:59;;;;;;;1.02;0.38;;;23.50;83.60;;;;;;5027338;28;20050;-71
2022/09/01 11:32:32;;;;;;;0.93;0.30;;;23.70;81.60;;;;;;5040165;28;20037;-70
2022/09/01 11:35:02;;;;;;;0.47;0.20;;;23.90;82.50;;;;;;5018257;28;20045;-70
2022/09/01 11:37:28;;;;;;;0.95;0.40;;;23.90;82.20;;;;;;5026843;28;20056;-70
2022/09/01 11:39:57;;;;;;;;;;;23.90;81.00;;;;;;5028062;28;20041;-70
2022/09/01 11:42:26;;;;;;;3.90;0.52;;;23.70;78.60;;;;;;5025327;28;19996;-70
2022/09/01 11:45:12;;;;;;;0.98;0.20;;;23.60;80.80;;;;;;5023625;28;20148;-70
2022/09/01 11:47:43;;;;;;;0.63;0.22;;;23.50;79.30;;;;;;5026128;28;20042;-71
2022/09/01 11:50:15;;;;;;;0.52;0.20;;;23.30;79.90;;;;;;5025901;28;20041;-70
2022/09/01 11:52:40;;;;;;;1.38;0.30;;;23.20;79.60;;;;;;5023640;28;20457;-70
2022/09/01 11:55:07;;;;;;;;;;;23.30;80.60;;;;;;5025957;28;20129;-71
2022/09/01 11:57:36;;;;;;;0.50;0.25;;;23.50;81.40;;;;;;5024886;28;20493;-70
2022/09/01 12:00:08;;;;;;;0.63;0.32;;;23.80;81.50;;;;;;5025176;28;20136;-70
2022/09/01 12:02:44;;;;;;;0.90;0.20;;;23.90;78.90;;;;;;5021381;28;20045;-70
2022/09/01 12:05:29;;;;;;;;;;;23.90;76.50;;;;;;5025997;28;20141;-70
2022/09/01 12:07:55;;;;;;;0.63;0.30;;;23.80;76.60;;;;;;5024391;28;19921;-70
2022/09/01 12:10:32;;;;;;;1.08;0.25;;;23.80;78.80;;;;;;5026095;28;20041;-70
2022/09/01 12:13:19;;;;;;;2.65;0.50;;;23.90;77.40;;;;;;5005228;28;20053;-71
2022/09/01 12:15:53;;;;;;;1.23;0.32;;;24.10;77.40;;;;;;5025177;28;20467;-70
2022/09/01 12:18:20;;;;;;;0.50;0.20;;;24.30;76.60;;;;;;5017927;28;20501;-71
2022/09/01 12:20:51;;;;;;;0.82;0.32;;;24.50;76.10;;;;;;5025313;28;20124;-70
2022/09/01 12:23:44;;;;;;;0.20;0.15;;;24.50;73.40;;;;;;5025661;28;20041;-70
2022/09/01 12:26:13;;;;;;;1.10;0.32;;;24.40;71.70;;;;;;5025943;28;20076;-70
2022/09/01 12:28:40;;;;;;;0.73;0.35;;;24.30;73.20;;;;;;5025012;28;20162;-70
2022/09/01 12:31:13;;;;;;;1.25;0.40;;;24.20;74.10;;;;;;5024085;28;20060;-70
2022/09/01 12:33:41;;;;;;;0.63;0.20;;;24.40;73.50;;;;;;5023642;28;20049;-71
2022/09/01 12:36:28;;;;;;;0.82;0.32;;;24.60;72.50;;;;;;5018757;28;20225;-70
2022/09/01 12:39:16;;;;;;;0.68;0.35;;;24.70;71.20;;;;;;5023577;28;20041;-70
2022/09/01 12:41:45;;;;;;;0.45;0.25;;;24.70;68.80;;;;;;5023284;28;20053;-70
2022/09/01 12:44:50;;;;;;;0.68;0.30;;;24.70;70.50;;;;;;5024604;28;20090;-70
2022/09/01 12:47:46;;;;;;;1.13;0.43;;;24.80;69.60;;;;;;5024600;28;20056;-70
2022/09/01 12:50:14;;;;;;;0.77;0.32;;;25.00;68.10;;;;;;5021850;28;20057;-71
2022/09/01 12:52:58;;;;;;;1.35;0.40;;;25.20;66.40;;;;;;5024033;28;20042;-71
2022/09/01 12:55:25;;;;;;;0.77;0.30;;;25.40;67.10;;;;;;5024641;28;20053;-70
2022/09/01 12:57:56;;;;;;;0.47;0.22;;;25.50;66.40;;;;;;5022491;28;20087;-70
2022/09/01 13:00:29;;;;;;;2.83;0.40;;;25.70;65.50;;;;;;5020731;28;20124;-70
2022/09/01 13:03:01;;;;;;;1.38;0.30;;;25.80;64.50;;;;;;5020973;28;20033;-71
2022/09/01 13:05:29;;;;;;;3.03;0.30;;;25.90;64.30;;;;;;5024553;28;20045;-71
2022/09/01 13:07:58;;;;;;;0.75;0.22;;;26.10;63.60;;;;;;5019946;28;20061;-70
2022/09/01 13:10:27;;;;;;;1.23;0.32;;;26.20;63.10;;;;;;5025315;28;20113;-70
2022/09/01 13:12:54;;;;;;;2.17;0.30;;;26.40;63.60;;;;;;5024547;28;20045;-71
2022/09/01 13:15:20;;;;;;;0.45;0.20;;;26.50;62.00;;;;;;5022436;28;20095;-71
2022/09/01 13:17:46;;;;;;;2.67;0.35;;;26.60;61.40;;;;;;5025162;28;20494;-71